sensor_id;sensor_type;location;lat;lon;timestamp;pressure;altitude;pressure_sealevel;temperature;humidity
72171;BME280;60063;59.842;17.604;2022-07-09T00:00:50;100822.72;;;18.98;61.62
72171;BME280;60063;59.842;17.604;2022-07-09T00:03:15;100825.50;;;18.98;61.72
72171;BME280;60063;59.842;17.604;2022-07-09T00:05:40;100818.81;;;18.99;61.71
72171;BME280;60063;59.842;17.604;2022-07-09T00:08:06;100817.66;;;19.00;61.74
72171;BME280;60063;59.842;17.604;2022-07-09T00:10:31;100810.16;;;19.01;61.79
72171;BME280;60063;59.842;17.604;2022-07-09T00:12:56;100808.19;;;19.01;61.98
72171;BME280;60063;59.842;17.604;2022-07-09T00:15:22;100817.34;;;19.02;62.19
72171;BME280;60063;59.842;17.604;2022-07-09T00:17:47;100796.28;;;19.01;61.74
72171;BME280;60063;59.842;17.604;2022-07-09T00:20:12;100791.53;;;19.01;62.08
72171;BME280;60063;59.842;17.604;2022-07-09T00:22:37;100791.53;;;19.01;61.97
72171;BME280;60063;59.842;17.604;2022-07-09T00:25:03;100787.13;;;19.00;62.34
72171;BME280;60063;59.842;17.604;2022-07-09T00:27:28;100783.53;;;18.99;62.46
72171;BME280;60063;59.842;17.604;2022-07-09T00:29:54;100780.25;;;18.97;62.68
72171;BME280;60063;59.842;17.604;2022-07-09T00:32:19;100778.94;;;18.95;62.35
72171;BME280;60063;59.842;17.604;2022-07-09T00:34:44;100778.44;;;18.93;62.51
72171;BME280;60063;59.842;17.604;2022-07-09T00:37:10;100774.84;;;18.92;62.31
72171;BME280;60063;59.842;17.604;2022-07-09T00:39:35;100769.63;;;18.91;62.36
72171;BME280;60063;59.842;17.604;2022-07-09T00:42:01;100774.63;;;18.89;62.19
72171;BME280;60063;59.842;17.604;2022-07-09T00:44:27;100770.22;;;18.88;62.27
72171;BME280;60063;59.842;17.604;2022-07-09T00:46:52;100774.44;;;18.85;62.15
72171;BME280;60063;59.842;17.604;2022-07-09T00:49:17;100773.13;;;18.82;62.71
72171;BME280;60063;59.842;17.604;2022-07-09T00:51:42;100764.59;;;18.79;62.64
72171;BME280;60063;59.842;17.604;2022-07-09T00:54:10;100767.72;;;18.77;62.95
72171;BME280;60063;59.842;17.604;2022-07-09T00:56:36;100769.16;;;18.75;62.94
72171;BME280;60063;59.842;17.604;2022-07-09T00:59:01;100770.28;;;18.74;63.30
72171;BME280;60063;59.842;17.604;2022-07-09T01:01:29;100759.84;;;18.71;63.18
72171;BME280;60063;59.842;17.604;2022-07-09T01:03:54;100751.34;;;18.67;62.96
72171;BME280;60063;59.842;17.604;2022-07-09T01:06:20;100748.84;;;18.65;62.90
72171;BME280;60063;59.842;17.604;2022-07-09T01:08:45;100743.63;;;18.64;62.87
72171;BME280;60063;59.842;17.604;2022-07-09T01:11:10;100741.97;;;18.63;63.03
72171;BME280;60063;59.842;17.604;2022-07-09T01:13:36;100733.19;;;18.61;63.09
72171;BME280;60063;59.842;17.604;2022-07-09T01:16:01;100731.03;;;18.58;63.13
72171;BME280;60063;59.842;17.604;2022-07-09T01:18:26;100731.34;;;18.56;63.10
72171;BME280;60063;59.842;17.604;2022-07-09T01:20:51;100728.56;;;18.56;63.33
72171;BME280;60063;59.842;17.604;2022-07-09T01:23:17;100726.13;;;18.55;63.34
72171;BME280;60063;59.842;17.604;2022-07-09T01:25:43;100725.63;;;18.53;63.17
72171;BME280;60063;59.842;17.604;2022-07-09T01:28:09;100714.31;;;18.49;63.41
72171;BME280;60063;59.842;17.604;2022-07-09T01:30:35;100719.06;;;18.48;63.57
72171;BME280;60063;59.842;17.604;2022-07-09T01:33:01;100714.78;;;18.42;63.51
72171;BME280;60063;59.842;17.604;2022-07-09T01:35:26;100705.31;;;18.43;63.64
72171;BME280;60063;59.842;17.604;2022-07-09T01:37:52;100707.59;;;18.41;63.53
72171;BME280;60063;59.842;17.604;2022-07-09T01:40:18;100698.44;;;18.41;63.91
72171;BME280;60063;59.842;17.604;2022-07-09T01:42:44;100704.31;;;18.39;64.17
72171;BME280;60063;59.842;17.604;2022-07-09T01:45:10;100701.03;;;18.37;63.77
72171;BME280;60063;59.842;17.604;2022-07-09T01:47:35;100694.16;;;18.34;64.01
72171;BME280;60063;59.842;17.604;2022-07-09T01:50:01;100690.06;;;18.32;63.85
72171;BME280;60063;59.842;17.604;2022-07-09T01:52:26;100693.69;;;18.32;63.89
72171;BME280;60063;59.842;17.604;2022-07-09T01:54:53;100682.06;;;18.30;63.71
72171;BME280;60063;59.842;17.604;2022-07-09T01:57:18;100678.78;;;18.28;63.79
72171;BME280;60063;59.842;17.604;2022-07-09T01:59:43;100680.75;;;18.28;63.98
72171;BME280;60063;59.842;17.604;2022-07-09T02:02:09;100686.63;;;18.26;64.15
72171;BME280;60063;59.842;17.604;2022-07-09T02:04:34;100668.66;;;18.24;63.85
72171;BME280;60063;59.842;17.604;2022-07-09T02:06:59;100678.13;;;18.23;64.23
72171;BME280;60063;59.842;17.604;2022-07-09T02:09:24;100660.97;;;18.21;64.08
72171;BME280;60063;59.842;17.604;2022-07-09T02:11:50;100666.00;;;18.18;64.12
72171;BME280;60063;59.842;17.604;2022-07-09T02:14:15;100676.28;;;18.18;63.92
72171;BME280;60063;59.842;17.604;2022-07-09T02:16:40;100664.69;;;18.16;64.14
72171;BME280;60063;59.842;17.604;2022-07-09T02:19:06;100660.59;;;18.13;63.99
72171;BME280;60063;59.842;17.604;2022-07-09T02:21:31;100652.91;;;18.10;64.18
72171;BME280;60063;59.842;17.604;2022-07-09T02:23:59;100655.16;;;18.08;64.15
72171;BME280;60063;59.842;17.604;2022-07-09T02:26:28;100648.31;;;18.06;64.19
72171;BME280;60063;59.842;17.604;2022-07-09T02:28:54;100644.22;;;18.03;64.34
72171;BME280;60063;59.842;17.604;2022-07-09T02:31:19;100660.31;;;18.01;64.48
72171;BME280;60063;59.842;17.604;2022-07-09T02:33:45;100655.44;;;17.98;64.36
72171;BME280;60063;59.842;17.604;2022-07-09T02:36:10;100653.78;;;17.97;64.42
72171;BME280;60063;59.842;17.604;2022-07-09T02:38:35;100649.69;;;17.94;64.97
72171;BME280;60063;59.842;17.604;2022-07-09T02:41:01;100636.44;;;17.91;64.79
72171;BME280;60063;59.842;17.604;2022-07-09T02:43:26;100640.66;;;17.89;64.73
72171;BME280;60063;59.842;17.604;2022-07-09T02:45:52;100621.25;;;17.89;64.94
72171;BME280;60063;59.842;17.604;2022-07-09T02:48:20;100615.22;;;17.86;64.94
72171;BME280;60063;59.842;17.604;2022-07-09T02:50:45;100612.47;;;17.86;64.68
72171;BME280;60063;59.842;17.604;2022-07-09T02:53:10;100610.16;;;17.89;64.72
72171;BME280;60063;59.842;17.604;2022-07-09T02:55:36;100604.63;;;17.89;64.83
72171;BME280;60063;59.842;17.604;2022-07-09T02:58:01;100608.53;;;17.87;64.96
72171;BME280;60063;59.842;17.604;2022-07-09T03:00:26;100606.28;;;17.90;65.46
72171;BME280;60063;59.842;17.604;2022-07-09T03:02:51;100600.22;;;17.87;65.27
72171;BME280;60063;59.842;17.604;2022-07-09T03:05:17;100600.22;;;17.87;65.50
72171;BME280;60063;59.842;17.604;2022-07-09T03:07:42;100592.22;;;17.86;65.39
72171;BME280;60063;59.842;17.604;2022-07-09T03:10:07;100593.06;;;17.86;65.49
72171;BME280;60063;59.842;17.604;2022-07-09T03:12:33;100580.03;;;17.87;65.57
72171;BME280;60063;59.842;17.604;2022-07-09T03:14:58;100583.59;;;17.87;65.55
72171;BME280;60063;59.842;17.604;2022-07-09T03:17:23;100595.19;;;17.90;65.53
72171;BME280;60063;59.842;17.604;2022-07-09T03:19:48;100586.25;;;17.93;65.32
72171;BME280;60063;59.842;17.604;2022-07-09T03:22:14;100589.53;;;17.95;65.92
72171;BME280;60063;59.842;17.604;2022-07-09T03:24:39;100597.53;;;17.96;65.77
72171;BME280;60063;59.842;17.604;2022-07-09T03:27:04;100598.69;;;17.95;65.80
72171;BME280;60063;59.842;17.604;2022-07-09T03:29:30;100593.97;;;17.96;65.84
72171;BME280;60063;59.842;17.604;2022-07-09T03:31:55;100596.19;;;17.94;65.87
72171;BME280;60063;59.842;17.604;2022-07-09T03:34:20;100594.56;;;17.93;65.78
72171;BME280;60063;59.842;17.604;2022-07-09T03:36:45;100586.25;;;17.93;65.81
72171;BME280;60063;59.842;17.604;2022-07-09T03:39:10;100584.31;;;17.93;66.08
72171;BME280;60063;59.842;17.604;2022-07-09T03:41:36;100582.13;;;17.90;65.88
72171;BME280;60063;59.842;17.604;2022-07-09T03:44:01;100572.50;;;17.87;66.08
72171;BME280;60063;59.842;17.604;2022-07-09T03:46:26;100567.63;;;17.84;66.02
72171;BME280;60063;59.842;17.604;2022-07-09T03:48:52;100560.44;;;17.83;66.16
72171;BME280;60063;59.842;17.604;2022-07-09T03:51:17;100562.69;;;17.81;66.13
72171;BME280;60063;59.842;17.604;2022-07-09T03:53:42;100559.72;;;17.78;66.07
72171;BME280;60063;59.842;17.604;2022-07-09T03:56:07;100562.50;;;17.78;65.85
72171;BME280;60063;59.842;17.604;2022-07-09T03:58:33;100558.94;;;17.77;65.83
72171;BME280;60063;59.842;17.604;2022-07-09T04:00:58;100560.56;;;17.78;66.17
72171;BME280;60063;59.842;17.604;2022-07-09T04:03:23;100561.69;;;17.77;66.11
72171;BME280;60063;59.842;17.604;2022-07-09T04:05:48;100554.84;;;17.75;66.05
72171;BME280;60063;59.842;17.604;2022-07-09T04:08:14;100546.53;;;17.75;65.82
72171;BME280;60063;59.842;17.604;2022-07-09T04:10:39;100547.34;;;17.75;65.76
72171;BME280;60063;59.842;17.604;2022-07-09T04:13:04;100538.72;;;17.77;65.74
72171;BME280;60063;59.842;17.604;2022-07-09T04:15:29;100537.56;;;17.78;65.70
72171;BME280;60063;59.842;17.604;2022-07-09T04:17:55;100522.13;;;17.77;65.71
72171;BME280;60063;59.842;17.604;2022-07-09T04:20:20;100511.03;;;17.77;65.69
72171;BME280;60063;59.842;17.604;2022-07-09T04:22:46;100509.06;;;17.77;65.58
72171;BME280;60063;59.842;17.604;2022-07-09T04:25:11;100520.66;;;17.79;65.61
72171;BME280;60063;59.842;17.604;2022-07-09T04:27:36;100506.81;;;17.79;65.64
72171;BME280;60063;59.842;17.604;2022-07-09T04:30:04;100515.13;;;17.79;65.66
72171;BME280;60063;59.842;17.604;2022-07-09T04:32:29;100508.75;;;17.79;65.66
72171;BME280;60063;59.842;17.604;2022-07-09T04:34:55;100510.72;;;17.78;65.60
72171;BME280;60063;59.842;17.604;2022-07-09T04:37:21;100504.34;;;17.78;65.78
72171;BME280;60063;59.842;17.604;2022-07-09T04:39:46;100508.25;;;17.77;65.83
72171;BME280;60063;59.842;17.604;2022-07-09T04:42:11;100506.91;;;17.74;65.82
72171;BME280;60063;59.842;17.604;2022-07-09T04:44:37;100511.97;;;17.72;65.78
72171;BME280;60063;59.842;17.604;2022-07-09T04:47:03;100509.19;;;17.72;65.91
72171;BME280;60063;59.842;17.604;2022-07-09T04:49:28;100512.28;;;17.70;66.12
72171;BME280;60063;59.842;17.604;2022-07-09T04:51:53;100510.34;;;17.71;65.95
72171;BME280;60063;59.842;17.604;2022-07-09T04:54:18;100510.34;;;17.71;65.93
72171;BME280;60063;59.842;17.604;2022-07-09T04:56:44;100511.97;;;17.72;65.84
72171;BME280;60063;59.842;17.604;2022-07-09T04:59:09;100510.00;;;17.73;65.76
72171;BME280;60063;59.842;17.604;2022-07-09T05:01:34;100506.91;;;17.74;65.77
72171;BME280;60063;59.842;17.604;2022-07-09T05:04:00;100508.56;;;17.75;65.76
72171;BME280;60063;59.842;17.604;2022-07-09T05:06:25;100501.88;;;17.76;65.79
72171;BME280;60063;59.842;17.604;2022-07-09T05:08:50;100504.66;;;17.76;65.91
72171;BME280;60063;59.842;17.604;2022-07-09T05:11:15;100508.56;;;17.75;65.92
72171;BME280;60063;59.842;17.604;2022-07-09T05:13:41;100508.25;;;17.77;65.75
72171;BME280;60063;59.842;17.604;2022-07-09T05:16:06;100517.88;;;17.79;65.73
72171;BME280;60063;59.842;17.604;2022-07-09T05:18:32;100517.25;;;17.82;65.99
72171;BME280;60063;59.842;17.604;2022-07-09T05:20:57;100520.53;;;17.84;65.90
72171;BME280;60063;59.842;17.604;2022-07-09T05:23:22;100524.28;;;17.89;65.80
72171;BME280;60063;59.842;17.604;2022-07-09T05:25:48;100520.56;;;17.93;65.59
72171;BME280;60063;59.842;17.604;2022-07-09T05:28:13;100508.38;;;17.94;65.52
72171;BME280;60063;59.842;17.604;2022-07-09T05:30:38;100510.03;;;17.95;65.36
72171;BME280;60063;59.842;17.604;2022-07-09T05:33:04;100507.44;;;17.99;65.02
72171;BME280;60063;59.842;17.604;2022-07-09T05:35:29;100502.91;;;18.03;65.29
72171;BME280;60063;59.842;17.604;2022-07-09T05:37:55;100501.09;;;18.07;65.17
72171;BME280;60063;59.842;17.604;2022-07-09T05:40:20;100492.97;;;18.11;65.07
72171;BME280;60063;59.842;17.604;2022-07-09T05:42:46;100507.53;;;18.16;64.98
72171;BME280;60063;59.842;17.604;2022-07-09T05:45:11;100491.88;;;18.21;64.76
72171;BME280;60063;59.842;17.604;2022-07-09T05:47:36;100484.06;;;18.23;64.63
72171;BME280;60063;59.842;17.604;2022-07-09T05:50:02;100483.25;;;18.22;64.38
72171;BME280;60063;59.842;17.604;2022-07-09T05:52:27;100482.94;;;18.24;64.40
72171;BME280;60063;59.842;17.604;2022-07-09T05:54:52;100481.47;;;18.26;64.37
72171;BME280;60063;59.842;17.604;2022-07-09T05:57:17;100479.19;;;18.28;64.37
72171;BME280;60063;59.842;17.604;2022-07-09T05:59:43;100478.88;;;18.30;64.16
72171;BME280;60063;59.842;17.604;2022-07-09T06:02:08;100476.59;;;18.32;63.98
72171;BME280;60063;59.842;17.604;2022-07-09T06:04:33;100474.31;;;18.34;64.00
72171;BME280;60063;59.842;17.604;2022-07-09T06:06:59;100471.22;;;18.35;63.87
72171;BME280;60063;59.842;17.604;2022-07-09T06:09:24;100478.09;;;18.38;63.79
72171;BME280;60063;59.842;17.604;2022-07-09T06:11:49;100472.53;;;18.38;63.70
72171;BME280;60063;59.842;17.604;2022-07-09T06:14:14;100465.06;;;18.39;63.56
72171;BME280;60063;59.842;17.604;2022-07-09T06:16:40;100466.53;;;18.36;63.59
72171;BME280;60063;59.842;17.604;2022-07-09T06:19:05;100468.44;;;18.35;63.63
72171;BME280;60063;59.842;17.604;2022-07-09T06:21:30;100470.44;;;18.35;63.44
72171;BME280;60063;59.842;17.604;2022-07-09T06:23:56;100458.03;;;18.32;63.41
72171;BME280;60063;59.842;17.604;2022-07-09T06:26:21;100466.34;;;18.32;63.26
72171;BME280;60063;59.842;17.604;2022-07-09T06:28:47;100454.41;;;18.32;63.17
72171;BME280;60063;59.842;17.604;2022-07-09T06:31:13;100457.19;;;18.32;63.33
72171;BME280;60063;59.842;17.604;2022-07-09T06:33:38;100457.19;;;18.32;63.38
72171;BME280;60063;59.842;17.604;2022-07-09T06:36:04;100456.88;;;18.33;63.33
72171;BME280;60063;59.842;17.604;2022-07-09T06:38:29;100453.28;;;18.33;63.02
72171;BME280;60063;59.842;17.604;2022-07-09T06:40:55;100455.25;;;18.32;63.19
72171;BME280;60063;59.842;17.604;2022-07-09T06:43:21;100456.38;;;18.31;63.27
72171;BME280;60063;59.842;17.604;2022-07-09T06:45:46;100454.41;;;18.32;63.32
72171;BME280;60063;59.842;17.604;2022-07-09T06:48:12;100446.59;;;18.34;63.47
72171;BME280;60063;59.842;17.604;2022-07-09T06:50:37;100451.50;;;18.37;63.40
72171;BME280;60063;59.842;17.604;2022-07-09T06:53:02;100447.59;;;18.38;63.17
72171;BME280;60063;59.842;17.604;2022-07-09T06:55:27;100439.44;;;18.42;62.73
72171;BME280;60063;59.842;17.604;2022-07-09T06:57:53;100432.75;;;18.43;62.21
72171;BME280;60063;59.842;17.604;2022-07-09T07:00:18;100438.47;;;18.46;62.03
72171;BME280;60063;59.842;17.604;2022-07-09T07:02:43;100443.41;;;18.49;61.05
72171;BME280;60063;59.842;17.604;2022-07-09T07:05:09;100439.97;;;18.53;60.49
72171;BME280;60063;59.842;17.604;2022-07-09T07:07:34;100442.09;;;18.56;60.36
72171;BME280;60063;59.842;17.604;2022-07-09T07:09:59;100436.69;;;18.59;59.85
72171;BME280;60063;59.842;17.604;2022-07-09T07:12:24;100438.03;;;18.62;59.21
72171;BME280;60063;59.842;17.604;2022-07-09T07:14:50;100439.00;;;18.66;59.55
72171;BME280;60063;59.842;17.604;2022-07-09T07:17:16;100437.22;;;18.70;59.37
72171;BME280;60063;59.842;17.604;2022-07-09T07:19:41;100434.28;;;18.75;59.26
72171;BME280;60063;59.842;17.604;2022-07-09T07:22:06;100440.50;;;18.81;58.84
72171;BME280;60063;59.842;17.604;2022-07-09T07:24:32;100438.69;;;18.85;57.56
72171;BME280;60063;59.842;17.604;2022-07-09T07:26:57;100436.91;;;18.89;56.47
72171;BME280;60063;59.842;17.604;2022-07-09T07:29:23;100437.13;;;18.93;56.02
72171;BME280;60063;59.842;17.604;2022-07-09T07:31:49;100436.94;;;18.98;56.02
72171;BME280;60063;59.842;17.604;2022-07-09T07:34:14;100432.38;;;19.02;54.87
72171;BME280;60063;59.842;17.604;2022-07-09T07:36:40;100431.06;;;19.08;55.42
72171;BME280;60063;59.842;17.604;2022-07-09T07:39:05;100428.13;;;19.13;54.69
72171;BME280;60063;59.842;17.604;2022-07-09T07:41:30;100425.19;;;19.19;54.31
72171;BME280;60063;59.842;17.604;2022-07-09T07:43:56;100419.94;;;19.26;53.95
72171;BME280;60063;59.842;17.604;2022-07-09T07:46:21;100429.72;;;19.32;53.59
72171;BME280;60063;59.842;17.604;2022-07-09T07:48:46;100418.16;;;19.39;53.76
72171;BME280;60063;59.842;17.604;2022-07-09T07:51:11;100422.38;;;19.45;53.46
72171;BME280;60063;59.842;17.604;2022-07-09T07:53:37;100423.50;;;19.53;53.40
72171;BME280;60063;59.842;17.604;2022-07-09T07:56:03;100416.78;;;19.62;53.56
72171;BME280;60063;59.842;17.604;2022-07-09T07:58:28;100411.69;;;19.73;52.09
72171;BME280;60063;59.842;17.604;2022-07-09T08:00:54;100412.78;;;19.81;52.20
72171;BME280;60063;59.842;17.604;2022-07-09T08:03:19;100411.16;;;19.89;52.18
72171;BME280;60063;59.842;17.604;2022-07-09T08:05:44;100411.94;;;19.98;51.56
72171;BME280;60063;59.842;17.604;2022-07-09T08:08:10;100416.47;;;20.11;51.29
72171;BME280;60063;59.842;17.604;2022-07-09T08:10:35;100421.94;;;20.29;50.72
72171;BME280;60063;59.842;17.604;2022-07-09T08:13:01;100419.38;;;20.45;49.48
72171;BME280;60063;59.842;17.604;2022-07-09T08:15:26;100423.25;;;20.53;48.50
72171;BME280;60063;59.842;17.604;2022-07-09T08:17:51;100422.25;;;20.57;49.08
72171;BME280;60063;59.842;17.604;2022-07-09T08:20:17;100423.53;;;20.60;48.65
72171;BME280;60063;59.842;17.604;2022-07-09T08:22:42;100430.41;;;20.63;49.45
72171;BME280;60063;59.842;17.604;2022-07-09T08:25:07;100423.34;;;20.65;48.45
72171;BME280;60063;59.842;17.604;2022-07-09T08:27:33;100416.94;;;20.73;48.34
72171;BME280;60063;59.842;17.604;2022-07-09T08:29:58;100424.66;;;20.89;48.53
72171;BME280;60063;59.842;17.604;2022-07-09T08:32:23;100419.69;;;21.16;46.21
72171;BME280;60063;59.842;17.604;2022-07-09T08:34:49;100410.81;;;21.56;46.81
72171;BME280;60063;59.842;17.604;2022-07-09T08:37:14;100419.59;;;22.04;45.28
72171;BME280;60063;59.842;17.604;2022-07-09T08:39:42;100415.78;;;22.58;42.84
72171;BME280;60063;59.842;17.604;2022-07-09T08:42:08;100419.69;;;23.10;44.48
72171;BME280;60063;59.842;17.604;2022-07-09T08:44:35;100414.97;;;23.71;44.31
72171;BME280;60063;59.842;17.604;2022-07-09T08:47:02;100408.13;;;24.33;39.98
72171;BME280;60063;59.842;17.604;2022-07-09T08:49:28;100419.59;;;24.99;40.61
72171;BME280;60063;59.842;17.604;2022-07-09T08:51:53;100422.13;;;25.66;40.25
72171;BME280;60063;59.842;17.604;2022-07-09T08:54:20;100421.25;;;26.32;38.94
72171;BME280;60063;59.842;17.604;2022-07-09T08:56:45;100427.03;;;27.00;41.01
72171;BME280;60063;59.842;17.604;2022-07-09T08:59:11;100418.13;;;27.62;37.64
72171;BME280;60063;59.842;17.604;2022-07-09T09:01:39;100418.25;;;28.22;36.52
72171;BME280;60063;59.842;17.604;2022-07-09T09:04:04;100416.63;;;28.84;35.79
72171;BME280;60063;59.842;17.604;2022-07-09T09:06:35;100414.47;;;29.44;34.16
72171;BME280;60063;59.842;17.604;2022-07-09T09:09:01;100418.19;;;30.06;32.23
72171;BME280;60063;59.842;17.604;2022-07-09T09:11:26;100420.13;;;30.66;27.47
72171;BME280;60063;59.842;17.604;2022-07-09T09:13:53;100420.72;;;31.25;26.63
72171;BME280;60063;59.842;17.604;2022-07-09T09:16:19;100421.56;;;31.85;26.62
72171;BME280;60063;59.842;17.604;2022-07-09T09:18:47;100424.66;;;32.47;26.22
72171;BME280;60063;59.842;17.604;2022-07-09T09:21:13;100430.41;;;33.13;26.13
72171;BME280;60063;59.842;17.604;2022-07-09T09:23:43;100414.78;;;33.86;26.89
72171;BME280;60063;59.842;17.604;2022-07-09T09:26:16;100419.41;;;34.68;27.93
72171;BME280;60063;59.842;17.604;2022-07-09T09:28:48;100422.56;;;35.51;26.08
72171;BME280;60063;59.842;17.604;2022-07-09T09:31:18;100416.56;;;36.15;20.91
72171;BME280;60063;59.842;17.604;2022-07-09T09:33:43;100424.31;;;36.60;20.70
72171;BME280;60063;59.842;17.604;2022-07-09T09:36:08;100420.94;;;37.08;21.16
72171;BME280;60063;59.842;17.604;2022-07-09T09:38:34;100413.31;;;37.56;19.94
72171;BME280;60063;59.842;17.604;2022-07-09T09:40:59;100409.88;;;38.00;19.29
72171;BME280;60063;59.842;17.604;2022-07-09T09:43:24;100416.16;;;38.43;17.82
72171;BME280;60063;59.842;17.604;2022-07-09T09:45:50;100422.56;;;38.91;19.03
72171;BME280;60063;59.842;17.604;2022-07-09T09:48:20;100416.88;;;39.54;20.04
72171;BME280;60063;59.842;17.604;2022-07-09T09:50:47;100417.69;;;40.14;19.86
72171;BME280;60063;59.842;17.604;2022-07-09T09:53:14;100419.94;;;40.75;19.18
72171;BME280;60063;59.842;17.604;2022-07-09T09:55:40;100416.03;;;40.97;15.89
72171;BME280;60063;59.842;17.604;2022-07-09T09:58:06;100411.19;;;41.21;17.46
72171;BME280;60063;59.842;17.604;2022-07-09T10:00:31;100418.88;;;41.67;16.76
72171;BME280;60063;59.842;17.604;2022-07-09T10:02:57;100409.25;;;42.19;17.38
72171;BME280;60063;59.842;17.604;2022-07-09T10:05:22;100409.34;;;42.34;16.58
72171;BME280;60063;59.842;17.604;2022-07-09T10:07:47;100407.56;;;42.37;16.72
72171;BME280;60063;59.842;17.604;2022-07-09T10:10:16;100405.69;;;42.63;16.33
72171;BME280;60063;59.842;17.604;2022-07-09T10:12:42;100412.19;;;43.03;15.04
72171;BME280;60063;59.842;17.604;2022-07-09T10:15:08;100400.22;;;43.40;14.96
72171;BME280;60063;59.842;17.604;2022-07-09T10:17:44;100398.66;;;43.75;13.79
72171;BME280;60063;59.842;17.604;2022-07-09T10:20:09;100399.84;;;44.04;13.83
72171;BME280;60063;59.842;17.604;2022-07-09T10:22:37;100391.94;;;44.46;14.74
72171;BME280;60063;59.842;17.604;2022-07-09T10:25:03;100382.63;;;44.62;10.78
72171;BME280;60063;59.842;17.604;2022-07-09T10:27:28;100401.47;;;44.11;11.95
72171;BME280;60063;59.842;17.604;2022-07-09T10:29:55;100386.94;;;42.98;13.48
72171;BME280;60063;59.842;17.604;2022-07-09T10:32:31;100394.09;;;41.70;14.32
72171;BME280;60063;59.842;17.604;2022-07-09T10:35:03;100399.53;;;40.17;13.98
72171;BME280;60063;59.842;17.604;2022-07-09T10:37:35;100387.28;;;38.72;15.30
72171;BME280;60063;59.842;17.604;2022-07-09T10:40:04;100397.19;;;38.01;15.61
72171;BME280;60063;59.842;17.604;2022-07-09T10:42:32;100381.19;;;38.26;15.93
72171;BME280;60063;59.842;17.604;2022-07-09T10:44:58;100383.09;;;38.86;15.12
72171;BME280;60063;59.842;17.604;2022-07-09T10:47:23;100382.91;;;39.43;14.48
72171;BME280;60063;59.842;17.604;2022-07-09T10:49:48;100386.13;;;39.55;14.02
72171;BME280;60063;59.842;17.604;2022-07-09T10:52:13;100393.50;;;39.24;14.54
72171;BME280;60063;59.842;17.604;2022-07-09T10:54:45;100394.72;;;38.47;14.80
72171;BME280;60063;59.842;17.604;2022-07-09T10:57:11;100398.16;;;37.46;15.69
72171;BME280;60063;59.842;17.604;2022-07-09T10:59:37;100396.94;;;36.63;16.50
72171;BME280;60063;59.842;17.604;2022-07-09T11:02:03;100391.78;;;36.57;16.61
72171;BME280;60063;59.842;17.604;2022-07-09T11:04:30;100391.91;;;37.09;16.49
72171;BME280;60063;59.842;17.604;2022-07-09T11:06:55;100387.25;;;37.67;16.48
72171;BME280;60063;59.842;17.604;2022-07-09T11:09:21;100385.69;;;38.14;15.92
72171;BME280;60063;59.842;17.604;2022-07-09T11:11:46;100385.63;;;38.40;14.43
72171;BME280;60063;59.842;17.604;2022-07-09T11:14:12;100387.88;;;38.45;14.32
72171;BME280;60063;59.842;17.604;2022-07-09T11:16:38;100384.75;;;38.30;14.52
72171;BME280;60063;59.842;17.604;2022-07-09T11:19:16;100383.75;;;38.11;15.02
72171;BME280;60063;59.842;17.604;2022-07-09T11:21:41;100388.28;;;37.86;15.40
72171;BME280;60063;59.842;17.604;2022-07-09T11:24:17;100390.03;;;37.45;15.86
72171;BME280;60063;59.842;17.604;2022-07-09T11:26:43;100387.41;;;36.82;16.25
72171;BME280;60063;59.842;17.604;2022-07-09T11:29:09;100396.31;;;36.09;17.34
72171;BME280;60063;59.842;17.604;2022-07-09T11:31:35;100384.22;;;35.39;18.01
72171;BME280;60063;59.842;17.604;2022-07-09T11:34:00;100378.13;;;34.80;18.45
72171;BME280;60063;59.842;17.604;2022-07-09T11:36:42;100391.56;;;34.15;19.04
72171;BME280;60063;59.842;17.604;2022-07-09T11:39:07;100382.84;;;33.51;18.38
72171;BME280;60063;59.842;17.604;2022-07-09T11:41:39;100382.41;;;32.95;19.21
72171;BME280;60063;59.842;17.604;2022-07-09T11:44:05;100382.56;;;32.46;19.67
72171;BME280;60063;59.842;17.604;2022-07-09T11:46:30;100383.00;;;31.99;19.27
72171;BME280;60063;59.842;17.604;2022-07-09T11:48:55;100372.91;;;31.45;19.95
72171;BME280;60063;59.842;17.604;2022-07-09T11:53:55;100364.41;;;30.63;21.09
72171;BME280;60063;59.842;17.604;2022-07-09T11:56:20;100368.09;;;30.39;21.54
72171;BME280;60063;59.842;17.604;2022-07-09T11:58:49;100367.72;;;30.18;22.11
72171;BME280;60063;59.842;17.604;2022-07-09T12:01:14;100366.94;;;30.00;22.40
72171;BME280;60063;59.842;17.604;2022-07-09T12:03:45;100370.97;;;29.88;22.90
72171;BME280;60063;59.842;17.604;2022-07-09T12:06:11;100369.75;;;29.78;23.17
72171;BME280;60063;59.842;17.604;2022-07-09T12:08:36;100368.13;;;29.63;23.04
72171;BME280;60063;59.842;17.604;2022-07-09T12:11:02;100372.53;;;29.46;23.18
72171;BME280;60063;59.842;17.604;2022-07-09T12:13:27;100374.13;;;29.32;23.35
72171;BME280;60063;59.842;17.604;2022-07-09T12:15:52;100365.63;;;29.18;23.03
72171;BME280;60063;59.842;17.604;2022-07-09T12:18:18;100365.97;;;29.02;22.58
72171;BME280;60063;59.842;17.604;2022-07-09T12:20:43;100371.53;;;28.84;22.34
72171;BME280;60063;59.842;17.604;2022-07-09T12:23:08;100372.25;;;28.66;22.37
72171;BME280;60063;59.842;17.604;2022-07-09T12:25:34;100371.38;;;28.55;22.71
72171;BME280;60063;59.842;17.604;2022-07-09T12:27:59;100368.09;;;28.42;23.16
72171;BME280;60063;59.842;17.604;2022-07-09T12:30:24;100364.00;;;28.32;23.10
72171;BME280;60063;59.842;17.604;2022-07-09T12:32:50;100363.56;;;28.23;23.36
72171;BME280;60063;59.842;17.604;2022-07-09T12:35:15;100354.63;;;28.14;23.00